createdAt,value
2023-05-10T00:00:23.566Z,55.97
2023-05-10T00:03:26.195Z,57.88
2023-05-10T00:06:29.002Z,58.54
2023-05-10T00:09:31.642Z,59.28
2023-05-10T00:12:34.119Z,59.70
2023-05-10T00:15:36.569Z,60.42
2023-05-10T00:18:39.103Z,60.75
2023-05-10T00:21:41.764Z,61.17
2023-05-10T00:24:44.206Z,61.55
2023-05-10T00:27:46.622Z,62.06
2023-05-10T00:30:49.089Z,62.74
2023-05-10T00:33:51.562Z,62.96
2023-05-10T00:36:53.987Z,63.32
2023-05-10T00:39:57.673Z,63.70
2023-05-10T00:43:01.523Z,63.30
2023-05-10T00:46:05.166Z,63.09
2023-05-10T00:49:08.555Z,62.87
2023-05-10T00:52:11.289Z,63.13
2023-05-10T00:55:15.039Z,63.01
2023-05-10T00:58:18.139Z,63.03
2023-05-10T01:01:20.980Z,62.91
2023-05-10T01:04:26.597Z,63.12
2023-05-10T01:07:29.763Z,63.32
2023-05-10T01:10:32.726Z,63.72
2023-05-10T01:13:38.958Z,63.77
2023-05-10T01:16:43.238Z,63.70
2023-05-10T01:19:45.748Z,64.20
2023-05-10T01:23:10.033Z,64.11
2023-05-10T01:26:31.963Z,64.06
2023-05-10T01:30:21.746Z,64.03
2023-05-10T01:33:30.795Z,63.94
2023-05-10T01:36:59.557Z,64.12
2023-05-10T01:40:31.193Z,64.01
2023-05-10T01:43:41.355Z,63.77
2023-05-10T01:46:44.144Z,63.26
2023-05-10T01:49:53.065Z,63.65
2023-05-10T01:52:58.983Z,63.82
2023-05-10T01:56:03.156Z,63.06
2023-05-10T01:59:09.860Z,63.40
2023-05-10T02:02:14.554Z,63.06
2023-05-10T02:05:18.553Z,63.45
2023-05-10T02:08:22.865Z,63.37
2023-05-10T02:11:26.534Z,63.61
2023-05-10T02:14:31.858Z,63.47
2023-05-10T02:17:36.471Z,63.81
2023-05-10T02:20:40.076Z,64.02
2023-05-10T02:23:44.219Z,63.93
2023-05-10T02:26:49.390Z,63.83
2023-05-10T02:29:52.643Z,63.83
2023-05-10T02:32:56.589Z,63.67
2023-05-10T02:36:00.285Z,63.95
2023-05-10T02:39:03.653Z,64.20
2023-05-10T02:42:06.654Z,63.77
2023-05-10T02:45:13.743Z,63.86
2023-05-10T02:48:17.999Z,64.60
2023-05-10T02:51:25.679Z,64.49
2023-05-10T02:54:34.117Z,64.78
2023-05-10T02:57:42.317Z,65.18
2023-05-10T03:00:44.931Z,65.46
2023-05-10T03:03:47.871Z,65.28
2023-05-10T03:06:51.421Z,65.29
2023-05-10T03:09:54.341Z,65.47
2023-05-10T03:13:22.033Z,65.56
2023-05-10T03:16:30.566Z,65.16
2023-05-10T03:19:51.985Z,65.70
2023-05-10T03:23:06.293Z,66.02
2023-05-10T03:26:09.760Z,66.33
2023-05-10T03:29:14.174Z,67.06
2023-05-10T03:32:16.806Z,67.31
2023-05-10T03:35:19.274Z,68.19
2023-05-10T03:38:22.096Z,68.39
2023-05-10T03:41:24.809Z,69.28
2023-05-10T03:44:27.226Z,69.56
2023-05-10T03:47:30.867Z,69.93
2023-05-10T03:50:34.167Z,70.00
2023-05-10T03:53:36.786Z,70.31
2023-05-10T03:56:39.434Z,70.46
2023-05-10T03:59:42.360Z,70.93
2023-05-10T04:02:46.254Z,71.27
2023-05-10T04:06:03.512Z,71.93
2023-05-10T04:09:06.408Z,72.07
2023-05-10T04:12:10.858Z,72.21
2023-05-10T04:15:13.728Z,71.85
2023-05-10T04:18:16.527Z,71.39
2023-05-10T04:21:19.007Z,71.13
2023-05-10T04:24:21.491Z,70.44
2023-05-10T04:27:23.991Z,70.12
2023-05-10T04:30:26.582Z,70.18
2023-05-10T04:33:29.065Z,69.87
2023-05-10T04:36:33.495Z,69.75
2023-05-10T04:39:36.752Z,70.29
2023-05-10T04:42:42.142Z,70.54
2023-05-10T04:45:44.531Z,69.79
2023-05-10T04:48:46.967Z,69.58
2023-05-10T04:51:49.537Z,70.09
2023-05-10T04:54:52.451Z,70.36
2023-05-10T04:57:57.785Z,70.75
2023-05-10T05:01:10.512Z,70.76
2023-05-10T05:04:13.094Z,70.83
2023-05-10T05:07:15.832Z,70.69
2023-05-10T05:10:18.737Z,70.80
2023-05-10T05:13:21.595Z,70.25
2023-05-10T05:16:24.527Z,70.16
2023-05-10T05:19:28.530Z,69.81
2023-05-10T05:22:32.919Z,69.82
2023-05-10T05:25:36.650Z,69.66
2023-05-10T05:28:40.231Z,69.49
2023-05-10T05:31:43.694Z,68.77
2023-05-10T05:34:47.313Z,68.09
2023-05-10T05:37:50.536Z,67.38
2023-05-10T05:40:53.128Z,66.86
2023-05-10T05:43:58.502Z,65.77
2023-05-10T05:47:01.404Z,64.20
2023-05-10T05:50:04.799Z,62.53
2023-05-10T05:53:07.793Z,61.93
2023-05-10T05:56:10.913Z,62.71
2023-05-10T05:59:14.030Z,62.93
2023-05-10T06:02:16.917Z,63.39
2023-05-10T06:05:20.233Z,63.51
2023-05-10T06:08:23.827Z,63.34
2023-05-10T06:11:27.273Z,62.56
2023-05-10T06:14:30.438Z,60.81
2023-05-10T06:17:33.654Z,60.40
2023-05-10T06:20:36.480Z,60.00
2023-05-10T06:23:39.959Z,59.20
2023-05-10T06:26:42.588Z,59.09
2023-05-10T06:29:45.040Z,59.06
2023-05-10T06:32:48.342Z,58.50
2023-05-10T06:35:51.438Z,57.89
2023-05-10T06:38:54.166Z,57.66
2023-05-10T06:41:57.159Z,57.06
2023-05-10T06:45:00.668Z,56.51
2023-05-10T06:48:03.901Z,56.06
2023-05-10T06:51:06.867Z,55.98
2023-05-10T06:54:30.325Z,55.29
2023-05-10T06:57:32.939Z,54.85
2023-05-10T07:00:35.807Z,53.66
2023-05-10T07:03:38.739Z,52.36
2023-05-10T07:06:41.756Z,52.30
2023-05-10T07:09:44.680Z,52.07
2023-05-10T07:12:48.703Z,52.43
2023-05-10T07:15:51.362Z,51.40
2023-05-10T07:18:54.649Z,51.32
2023-05-10T07:21:57.222Z,50.66
2023-05-10T07:24:59.617Z,50.86
2023-05-10T07:28:02.278Z,50.42
2023-05-10T07:31:05.162Z,49.48
2023-05-10T07:34:07.817Z,48.21
2023-05-10T07:37:10.380Z,46.93
2023-05-10T07:40:13.165Z,46.55
2023-05-10T07:43:15.531Z,46.26
2023-05-10T07:46:18.319Z,46.80
2023-05-10T07:49:21.137Z,46.07
2023-05-10T07:52:23.578Z,46.26
2023-05-10T07:55:27.880Z,46.49
2023-05-10T07:58:31.504Z,46.83
2023-05-10T08:01:36.088Z,46.08
2023-05-10T08:04:38.625Z,46.23
2023-05-10T08:07:42.011Z,47.02
2023-05-10T08:10:45.279Z,46.17
2023-05-10T08:13:49.345Z,46.25
2023-05-10T08:16:51.879Z,46.61
2023-05-10T08:19:54.874Z,45.71
2023-05-10T08:22:57.343Z,45.80
2023-05-10T08:26:00.843Z,46.02
2023-05-10T08:29:03.576Z,45.90
2023-05-10T08:32:06.277Z,46.21
2023-05-10T08:35:08.765Z,46.36
2023-05-10T08:38:11.422Z,46.85
2023-05-10T08:41:14.914Z,46.45
2023-05-10T08:44:19.318Z,45.14
2023-05-10T08:47:22.317Z,44.63
2023-05-10T08:50:26.412Z,43.90
2023-05-10T08:53:34.404Z,43.51
2023-05-10T08:56:37.547Z,43.50
2023-05-10T08:59:41.618Z,41.70
2023-05-10T09:02:45.258Z,42.25
2023-05-10T09:05:48.787Z,41.74
2023-05-10T09:08:52.082Z,42.16
2023-05-10T09:11:55.620Z,43.34
2023-05-10T09:15:00.807Z,43.02
2023-05-10T09:18:03.604Z,41.89
2023-05-10T09:21:06.493Z,42.29
2023-05-10T09:24:10.095Z,42.83
2023-05-10T09:27:12.534Z,42.57
2023-05-10T09:30:25.459Z,41.32
2023-05-10T09:33:28.386Z,40.42
2023-05-10T09:36:30.900Z,39.68
2023-05-10T09:39:38.562Z,41.34
2023-05-10T09:42:43.587Z,42.15
2023-05-10T09:45:50.863Z,41.67
2023-05-10T09:48:53.790Z,39.90
2023-05-10T09:52:07.503Z,37.60
2023-05-10T09:55:10.317Z,37.34
2023-05-10T09:58:16.121Z,37.27
2023-05-10T10:01:18.646Z,36.85
2023-05-10T10:04:22.385Z,37.88
2023-05-10T10:07:26.613Z,38.47
2023-05-10T10:10:29.679Z,38.01
2023-05-10T10:13:33.256Z,36.85
2023-05-10T10:16:36.399Z,35.18
2023-05-10T10:19:39.240Z,35.18
2023-05-10T10:22:42.236Z,35.24
2023-05-10T10:25:49.005Z,33.75
2023-05-10T10:28:57.482Z,34.26
2023-05-10T10:32:18.638Z,34.77
2023-05-10T10:35:21.365Z,36.02
2023-05-10T10:38:24.393Z,33.67
2023-05-10T10:41:36.503Z,28.43
2023-05-10T10:44:39.777Z,31.01
2023-05-10T10:47:44.550Z,27.88
2023-05-10T10:50:50.346Z,30.77
2023-05-10T10:53:53.015Z,24.94
2023-05-10T10:57:15.528Z,23.15
2023-05-10T11:00:22.791Z,22.87
2023-05-10T11:03:26.564Z,23.90
2023-05-10T11:06:34.624Z,24.02
2023-05-10T11:09:41.223Z,28.96
2023-05-10T11:13:04.510Z,29.81
2023-05-10T11:16:18.906Z,30.79
2023-05-10T11:19:21.735Z,24.98
2023-05-10T11:22:26.818Z,23.26
2023-05-10T11:25:29.670Z,26.80
2023-05-10T11:28:33.090Z,29.02
2023-05-10T11:31:36.406Z,30.55
2023-05-10T11:34:39.804Z,32.64
2023-05-10T11:37:44.752Z,33.05
2023-05-10T11:40:47.867Z,32.53
2023-05-10T11:43:52.414Z,32.56
2023-05-10T11:46:55.021Z,32.48
2023-05-10T11:49:58.337Z,33.48
2023-05-10T11:53:00.967Z,34.21
2023-05-10T11:56:07.702Z,34.73
2023-05-10T11:59:10.730Z,34.52
2023-05-10T12:02:17.053Z,34.07
2023-05-10T12:05:19.634Z,32.80
2023-05-10T12:08:27.465Z,31.92
2023-05-10T12:11:30.031Z,26.41
2023-05-10T12:14:36.215Z,20.89
2023-05-10T12:17:43.186Z,18.83
2023-05-10T12:20:46.174Z,22.07
2023-05-10T12:23:52.342Z,18.37
2023-05-10T12:26:54.790Z,18.12
2023-05-10T12:30:00.766Z,20.52
2023-05-10T12:33:09.206Z,25.80
2023-05-10T12:36:13.671Z,28.30
2023-05-10T12:39:16.791Z,30.58
2023-05-10T12:42:19.346Z,31.98
2023-05-10T12:45:22.033Z,33.18
2023-05-10T12:48:24.791Z,32.70
2023-05-10T12:51:27.362Z,33.54
2023-05-10T12:54:30.183Z,32.51
2023-05-10T12:57:32.663Z,31.89
2023-05-10T13:00:35.109Z,31.81
2023-05-10T13:03:37.640Z,30.66
2023-05-10T13:06:40.173Z,31.20
2023-05-10T13:09:42.804Z,31.32
2023-05-10T13:12:46.273Z,31.08
2023-05-10T13:15:49.784Z,30.87
2023-05-10T13:18:52.177Z,28.01
2023-05-10T13:21:54.636Z,28.33
2023-05-10T13:24:57.058Z,26.58
2023-05-10T13:27:59.538Z,20.89
2023-05-10T13:31:03.371Z,19.77
2023-05-10T13:34:06.375Z,21.04
2023-05-10T13:37:08.806Z,21.39
2023-05-10T13:40:11.451Z,19.80
2023-05-10T13:43:13.960Z,21.41
2023-05-10T13:46:16.537Z,24.87
2023-05-10T13:49:19.062Z,25.19
2023-05-10T13:52:22.335Z,25.21
2023-05-10T13:55:25.501Z,26.43
2023-05-10T13:58:27.970Z,27.57
2023-05-10T14:01:30.492Z,26.07
2023-05-10T14:04:33.077Z,27.91
2023-05-10T14:07:35.767Z,29.44
2023-05-10T14:10:39.070Z,28.54
2023-05-10T14:13:41.541Z,26.13
2023-05-10T14:16:46.682Z,27.80
2023-05-10T14:19:49.202Z,29.10
2023-05-10T14:22:51.859Z,29.11
2023-05-10T14:25:55.522Z,29.30
2023-05-10T14:28:58.221Z,29.07
2023-05-10T14:32:00.872Z,28.99
2023-05-10T14:35:03.979Z,28.52
2023-05-10T14:38:06.687Z,27.63
2023-05-10T14:41:11.264Z,28.64
2023-05-10T14:44:14.396Z,29.63
2023-05-10T14:47:16.824Z,29.96
2023-05-10T14:50:35.317Z,30.12
2023-05-10T14:53:39.460Z,30.40
2023-05-10T14:56:42.620Z,29.76
2023-05-10T14:59:45.068Z,28.82
2023-05-10T15:02:49.127Z,28.75
2023-05-10T15:05:52.656Z,27.93
2023-05-10T15:08:55.019Z,28.04
2023-05-10T15:11:57.459Z,27.37
2023-05-10T15:14:59.856Z,26.19
2023-05-10T15:18:02.540Z,27.78
2023-05-10T15:21:05.093Z,27.95
2023-05-10T15:24:07.677Z,25.21
2023-05-10T15:27:10.123Z,23.21
2023-05-10T15:30:13.264Z,21.36
2023-05-10T15:33:15.817Z,24.99
2023-05-10T15:36:19.031Z,27.76
2023-05-10T15:39:21.606Z,23.81
2023-05-10T15:42:24.060Z,20.85
2023-05-10T15:45:26.472Z,21.42
2023-05-10T15:48:29.142Z,21.64
2023-05-10T15:51:34.871Z,21.04
2023-05-10T15:54:39.543Z,21.98
2023-05-10T15:57:43.658Z,19.96
2023-05-10T16:00:46.158Z,20.55
2023-05-10T16:03:48.562Z,21.78
2023-05-10T16:06:50.985Z,21.72
2023-05-10T16:09:53.452Z,22.99
2023-05-10T16:12:56.239Z,24.71
2023-05-10T16:15:58.712Z,26.83
2023-05-10T16:19:02.422Z,25.08
2023-05-10T16:22:05.189Z,24.12
2023-05-10T16:25:08.337Z,24.10
2023-05-10T16:28:10.934Z,24.73
2023-05-10T16:31:13.930Z,25.18
2023-05-10T16:34:16.583Z,24.49
2023-05-10T16:37:19.043Z,25.74
2023-05-10T16:40:22.028Z,29.01
2023-05-10T16:43:26.139Z,29.17
2023-05-10T16:46:28.937Z,28.29
2023-05-10T16:49:31.605Z,28.03
2023-05-10T16:52:35.379Z,27.55
2023-05-10T16:55:38.037Z,26.68
2023-05-10T16:58:40.508Z,25.94
2023-05-10T17:01:43.000Z,27.39
2023-05-10T17:04:45.618Z,29.91
2023-05-10T17:07:48.268Z,30.94
2023-05-10T17:10:50.628Z,30.17
2023-05-10T17:16:55.692Z,30.60
2023-05-10T17:19:58.796Z,30.77
2023-05-10T17:23:03.223Z,32.77
2023-05-10T17:26:06.858Z,34.18
2023-05-10T17:29:09.422Z,34.78
2023-05-10T17:32:11.877Z,35.17
2023-05-10T17:35:14.616Z,35.76
2023-05-10T17:38:17.376Z,35.97
2023-05-10T17:41:19.951Z,36.10
2023-05-10T17:44:22.421Z,36.21
2023-05-10T17:47:24.994Z,36.37
2023-05-10T17:50:27.636Z,36.83
2023-05-10T17:53:30.631Z,37.46
2023-05-10T17:56:33.020Z,37.42
2023-05-10T17:59:35.504Z,37.79
2023-05-10T18:02:38.062Z,38.46
2023-05-10T18:05:40.760Z,38.78
2023-05-10T18:08:43.337Z,38.78
2023-05-10T18:11:45.801Z,39.15
2023-05-10T18:14:48.298Z,39.58
2023-05-10T18:17:50.870Z,39.87
2023-05-10T18:20:56.708Z,40.27
2023-05-10T18:23:59.160Z,40.84
2023-05-10T18:27:02.013Z,41.24
2023-05-10T18:30:06.258Z,41.71
2023-05-10T18:33:11.912Z,41.84
2023-05-10T18:36:14.695Z,42.44
2023-05-10T18:39:18.681Z,42.82
2023-05-10T18:42:21.322Z,43.02
2023-05-10T18:45:23.870Z,43.33
2023-05-10T18:48:26.671Z,43.82
2023-05-10T18:51:32.564Z,44.19
2023-05-10T18:54:35.026Z,44.22
2023-05-10T18:57:41.524Z,44.57
2023-05-10T19:00:44.489Z,44.29
2023-05-10T19:03:46.982Z,44.43
2023-05-10T19:06:49.554Z,44.71
2023-05-10T19:09:52.239Z,44.54
2023-05-10T19:12:55.064Z,44.68
2023-05-10T19:16:16.971Z,44.50
2023-05-10T19:19:19.649Z,44.58
2023-05-10T19:22:35.300Z,44.53
2023-05-10T19:25:45.557Z,44.35
2023-05-10T19:28:51.002Z,44.68
2023-05-10T19:31:53.885Z,44.55
2023-05-10T19:34:56.985Z,44.84
2023-05-10T19:37:59.444Z,44.44
2023-05-10T19:41:02.042Z,44.71
2023-05-10T19:44:04.932Z,44.57
2023-05-10T19:47:09.544Z,44.47
2023-05-10T19:50:12.611Z,44.35
2023-05-10T19:53:15.434Z,44.38
2023-05-10T19:56:18.476Z,44.39
2023-05-10T19:59:21.152Z,44.36
2023-05-10T20:02:23.663Z,44.30
2023-05-10T20:05:27.669Z,43.97
2023-05-10T20:08:31.050Z,44.28
2023-05-10T20:11:34.256Z,44.44
2023-05-10T20:14:37.124Z,44.01
2023-05-10T20:17:39.937Z,45.27
2023-05-10T20:20:43.214Z,45.33
2023-05-10T20:23:45.649Z,46.34
2023-05-10T20:26:48.160Z,47.62
2023-05-10T20:29:50.659Z,48.03
2023-05-10T20:32:53.613Z,48.12
2023-05-10T20:35:56.301Z,48.72
2023-05-10T20:38:58.671Z,48.81
2023-05-10T20:42:01.202Z,49.12
2023-05-10T20:45:04.491Z,49.47
2023-05-10T20:48:07.828Z,49.25
2023-05-10T20:51:10.307Z,49.22
2023-05-10T20:54:12.744Z,49.43
2023-05-10T20:57:15.533Z,49.73
2023-05-10T21:00:18.287Z,49.88
2023-05-10T21:03:20.974Z,50.23
2023-05-10T21:06:23.517Z,50.36
2023-05-10T21:09:25.922Z,50.10
2023-05-10T21:12:28.404Z,50.08
2023-05-10T21:15:30.877Z,49.96
2023-05-10T21:18:33.326Z,50.12
2023-05-10T21:21:36.025Z,50.25
2023-05-10T21:24:38.565Z,50.75
2023-05-10T21:27:40.934Z,50.57
2023-05-10T21:30:43.346Z,50.50
2023-05-10T21:33:45.926Z,50.94
2023-05-10T21:36:48.514Z,50.63
2023-05-10T21:39:52.868Z,50.99
2023-05-10T21:42:55.437Z,51.89
2023-05-10T21:45:57.867Z,51.96
2023-05-10T21:49:00.360Z,51.90
2023-05-10T21:52:02.791Z,52.45
2023-05-10T21:55:06.642Z,52.38
2023-05-10T21:58:09.088Z,52.43
2023-05-10T22:01:11.589Z,52.49
2023-05-10T22:04:14.130Z,52.33
2023-05-10T22:07:17.073Z,51.76
2023-05-10T22:10:19.870Z,51.64
2023-05-10T22:13:22.397Z,51.05
2023-05-10T22:16:25.109Z,50.61
2023-05-10T22:19:27.803Z,50.46
2023-05-10T22:22:30.137Z,50.24
2023-05-10T22:25:32.648Z,50.56
2023-05-10T22:28:35.167Z,50.12
2023-05-10T22:31:38.277Z,49.83
2023-05-10T22:34:43.120Z,49.76
2023-05-10T22:37:45.513Z,50.21
2023-05-10T22:40:47.891Z,50.34
2023-05-10T22:43:50.501Z,50.21
2023-05-10T22:46:52.968Z,50.28
2023-05-10T22:49:56.172Z,50.11
2023-05-10T22:52:58.661Z,49.30
2023-05-10T22:56:01.617Z,48.68
2023-05-10T22:59:04.163Z,48.74
2023-05-10T23:02:07.094Z,48.90
2023-05-10T23:05:10.009Z,48.55
2023-05-10T23:08:12.981Z,48.70
2023-05-10T23:11:15.501Z,48.90
2023-05-10T23:14:17.857Z,48.73
2023-05-10T23:17:20.563Z,48.63
2023-05-10T23:20:22.970Z,48.81
2023-05-10T23:23:25.651Z,48.78
2023-05-10T23:26:28.129Z,48.81
2023-05-10T23:29:32.046Z,48.63
2023-05-10T23:32:34.536Z,48.47
2023-05-10T23:35:37.173Z,48.69
2023-05-10T23:38:39.647Z,49.11
2023-05-10T23:41:42.758Z,48.66
2023-05-10T23:44:45.462Z,47.94
2023-05-10T23:47:47.973Z,46.77
2023-05-10T23:50:50.735Z,46.66
2023-05-10T23:53:53.180Z,46.86
2023-05-10T23:56:55.732Z,46.67
2023-05-10T23:59:58.381Z,46.70
